createdAt,value
2022-11-05T00:00:35.915Z,98472.88
2022-11-05T00:03:21.263Z,98467.41
2022-11-05T00:06:10.488Z,98476.88
2022-11-05T00:08:57.779Z,98482.88
2022-11-05T00:11:45.435Z,98474.75
2022-11-05T00:14:31.157Z,98481.81
2022-11-05T00:16:58.821Z,98487.50
2022-11-05T00:19:26.483Z,98489.31
2022-11-05T00:22:11.684Z,98498.81
2022-11-05T00:24:58.307Z,98505.47
2022-11-05T00:27:26.000Z,98510.22
2022-11-05T00:29:53.729Z,98505.66
2022-11-05T00:32:23.009Z,98508.06
2022-11-05T00:34:50.692Z,98510.41
2022-11-05T00:37:18.378Z,98509.31
2022-11-05T00:39:47.583Z,98514.25
2022-11-05T00:42:33.177Z,98500.69
2022-11-05T00:45:04.084Z,98515.16
2022-11-05T00:47:50.426Z,98517.50
2022-11-05T00:50:19.323Z,98514.03
2022-11-05T00:52:57.044Z,98523.53
2022-11-05T00:55:29.560Z,98513.63
2022-11-05T00:57:58.511Z,98519.59
2022-11-05T01:00:28.523Z,98511.84
2022-11-05T01:02:58.962Z,98517.69
2022-11-05T01:05:28.938Z,98515.19
2022-11-05T01:07:57.039Z,98515.09
2022-11-05T01:10:26.521Z,98517.69
2022-11-05T01:12:54.557Z,98523.78
2022-11-05T01:15:25.022Z,98518.97
2022-11-05T01:17:53.194Z,98526.19
2022-11-05T01:20:20.937Z,98533.53
2022-11-05T01:22:48.626Z,98537.72
2022-11-05T01:25:16.456Z,98531.59
2022-11-05T01:27:45.547Z,98542.84
2022-11-05T01:30:14.149Z,98549.44
2022-11-05T01:32:41.898Z,98564.72
2022-11-05T01:35:13.066Z,98561.72
2022-11-05T01:37:40.821Z,98569.22
2022-11-05T01:40:11.433Z,98563.81
2022-11-05T01:42:39.120Z,98572.63
2022-11-05T01:45:16.821Z,98574.31
2022-11-05T01:47:53.248Z,98577.00
2022-11-05T01:50:31.239Z,98573.06
2022-11-05T01:53:04.115Z,98574.88
2022-11-05T01:55:36.593Z,98570.84
2022-11-05T01:58:08.119Z,98572.00
2022-11-05T02:00:37.592Z,98569.63
2022-11-05T02:03:05.569Z,98576.00
2022-11-05T02:05:34.494Z,98572.41
2022-11-05T02:08:02.707Z,98573.00
2022-11-05T02:10:30.430Z,98583.06
2022-11-05T02:12:58.109Z,98588.56
2022-11-05T02:15:30.713Z,98582.56
2022-11-05T02:18:15.269Z,98583.28
2022-11-05T02:20:52.359Z,98584.13
2022-11-05T02:23:55.546Z,98573.41
2022-11-05T02:26:50.846Z,98570.41
2022-11-05T02:29:39.963Z,98575.47
2022-11-05T02:32:14.552Z,98576.56
2022-11-05T02:34:52.604Z,98563.75
2022-11-05T02:37:33.345Z,98579.97
2022-11-05T02:40:11.755Z,98574.31
2022-11-05T02:42:46.409Z,98578.84
2022-11-05T02:45:26.699Z,98579.59
2022-11-05T02:48:08.433Z,98601.69
2022-11-05T02:50:44.366Z,98590.91
2022-11-05T02:53:17.694Z,98593.97
2022-11-05T02:55:50.461Z,98599.84
2022-11-05T02:58:18.132Z,98598.72
2022-11-05T03:00:50.618Z,98594.53
2022-11-05T03:03:27.552Z,98595.97
2022-11-05T03:06:31.587Z,98591.25
2022-11-05T03:09:13.356Z,98591.72
2022-11-05T03:11:56.354Z,98605.13
2022-11-05T03:14:31.748Z,98613.63
2022-11-05T03:17:08.484Z,98619.41
2022-11-05T03:19:44.061Z,98615.63
2022-11-05T03:22:15.289Z,98622.59
2022-11-05T03:24:50.100Z,98622.91
2022-11-05T03:27:23.478Z,98625.81
2022-11-05T03:29:57.172Z,98629.22
2022-11-05T03:32:27.091Z,98627.88
2022-11-05T03:35:02.315Z,98641.13
2022-11-05T03:37:34.745Z,98635.97
2022-11-05T03:40:07.200Z,98640.63
2022-11-05T03:42:39.224Z,98644.53
2022-11-05T03:45:11.448Z,98640.84
2022-11-05T03:47:42.913Z,98654.19
2022-11-05T03:50:20.006Z,98655.88
2022-11-05T03:52:54.018Z,98660.81
2022-11-05T03:55:25.248Z,98653.69
2022-11-05T03:57:56.247Z,98666.28
2022-11-05T04:00:24.536Z,98664.34
2022-11-05T04:02:52.536Z,98671.88
2022-11-05T04:05:21.660Z,98674.13
2022-11-05T04:08:11.394Z,98683.38
2022-11-05T04:10:59.060Z,98686.50
2022-11-05T04:13:27.595Z,98691.84
2022-11-05T04:16:16.476Z,98696.47
2022-11-05T04:18:44.511Z,98700.56
2022-11-05T04:21:31.488Z,98701.38
2022-11-05T04:24:12.749Z,98698.84
2022-11-05T04:26:43.598Z,98704.31
2022-11-05T04:29:28.903Z,98695.03
2022-11-05T04:31:56.678Z,98699.50
2022-11-05T04:34:24.538Z,98698.78
2022-11-05T04:36:53.766Z,98700.06
2022-11-05T04:39:22.592Z,98701.03
2022-11-05T04:41:50.282Z,98693.97
2022-11-05T04:44:18.039Z,98691.22
2022-11-05T04:46:45.697Z,98698.03
2022-11-05T04:49:13.408Z,98689.75
2022-11-05T04:51:41.099Z,98699.53
2022-11-05T04:54:10.141Z,98701.44
2022-11-05T04:56:37.793Z,98705.59
2022-11-05T04:59:05.488Z,98708.16
2022-11-05T05:01:33.387Z,98688.41
2022-11-05T05:04:01.291Z,98703.16
2022-11-05T05:06:28.993Z,98698.25
2022-11-05T05:08:56.715Z,98702.13
2022-11-05T05:11:25.768Z,98704.16
2022-11-05T05:13:53.414Z,98706.09
2022-11-05T05:16:22.651Z,98717.13
2022-11-05T05:18:50.888Z,98719.81
2022-11-05T05:21:37.946Z,98714.47
2022-11-05T05:24:08.615Z,98714.91
2022-11-05T05:26:38.461Z,98712.69
2022-11-05T05:29:08.122Z,98730.69
2022-11-05T05:31:36.111Z,98734.66
2022-11-05T05:34:03.791Z,98738.34
2022-11-05T05:36:31.942Z,98738.31
2022-11-05T05:38:59.627Z,98743.66
2022-11-05T05:41:27.438Z,98742.09
2022-11-05T05:43:56.468Z,98740.31
2022-11-05T05:46:24.142Z,98740.66
2022-11-05T05:48:53.078Z,98742.81
2022-11-05T05:51:20.940Z,98750.94
2022-11-05T05:53:48.588Z,98746.06
2022-11-05T05:56:20.551Z,98757.94
2022-11-05T05:58:48.640Z,98768.72
2022-11-05T06:01:19.997Z,98769.03
2022-11-05T06:03:48.195Z,98772.25
2022-11-05T06:06:19.694Z,98784.91
2022-11-05T06:08:47.851Z,98777.19
2022-11-05T06:11:15.820Z,98781.13
2022-11-05T06:13:43.525Z,98779.00
2022-11-05T06:16:11.588Z,98789.97
2022-11-05T06:18:40.765Z,98793.03
2022-11-05T06:21:10.477Z,98797.75
2022-11-05T06:23:40.070Z,98800.38
2022-11-05T06:26:10.199Z,98801.06
2022-11-05T06:28:38.083Z,98794.06
2022-11-05T06:31:07.132Z,98805.50
2022-11-05T06:33:34.841Z,98806.88
2022-11-05T06:36:05.739Z,98807.22
2022-11-05T06:38:34.837Z,98821.97
2022-11-05T06:41:09.867Z,98818.09
2022-11-05T06:43:38.187Z,98821.16
2022-11-05T06:46:06.587Z,98829.13
2022-11-05T06:48:34.495Z,98836.72
2022-11-05T06:51:02.420Z,98831.00
2022-11-05T06:53:32.140Z,98823.09
2022-11-05T06:56:03.149Z,98836.47
2022-11-05T06:58:31.840Z,98842.09
2022-11-05T07:01:02.114Z,98851.44
2022-11-05T07:03:30.401Z,98852.13
2022-11-05T07:06:00.133Z,98863.44
2022-11-05T07:08:28.006Z,98868.22
2022-11-05T07:10:57.075Z,98879.00
2022-11-05T07:13:24.775Z,98879.00
2022-11-05T07:15:52.449Z,98875.28
2022-11-05T07:18:20.338Z,98888.84
2022-11-05T07:20:48.855Z,98893.06
2022-11-05T07:23:17.069Z,98895.84
2022-11-05T07:25:45.970Z,98892.19
2022-11-05T07:28:15.340Z,98901.69
2022-11-05T07:30:43.188Z,98911.00
2022-11-05T07:33:13.617Z,98917.22
2022-11-05T07:35:41.540Z,98916.63
2022-11-05T07:38:09.442Z,98915.88
2022-11-05T07:40:37.217Z,98925.94
2022-11-05T07:43:04.930Z,98925.41
2022-11-05T07:45:33.968Z,98927.31
2022-11-05T07:48:03.781Z,98934.31
2022-11-05T07:50:33.229Z,98944.63
2022-11-05T07:53:02.048Z,98944.41
2022-11-05T07:55:30.462Z,98945.91
2022-11-05T07:57:58.242Z,98951.06
2022-11-05T08:00:27.734Z,98958.13
2022-11-05T08:03:09.301Z,98955.88
2022-11-05T08:05:39.350Z,98961.59
2022-11-05T08:08:08.534Z,98961.72
2022-11-05T08:10:37.434Z,98969.94
2022-11-05T08:13:06.148Z,98969.03
2022-11-05T08:15:34.436Z,98975.09
2022-11-05T08:18:05.399Z,98978.47
2022-11-05T08:20:34.189Z,98976.75
2022-11-05T08:23:02.256Z,98973.06
2022-11-05T08:25:30.352Z,98973.75
2022-11-05T08:27:59.224Z,98976.00
2022-11-05T08:30:27.171Z,98977.09
2022-11-05T08:32:58.522Z,98975.59
2022-11-05T08:35:27.979Z,98991.19
2022-11-05T08:37:58.950Z,98985.63
2022-11-05T08:40:26.916Z,98991.38
2022-11-05T08:42:57.173Z,98987.84
2022-11-05T08:45:25.171Z,99001.78
2022-11-05T08:47:59.028Z,98994.41
2022-11-05T08:50:28.100Z,99002.00
2022-11-05T08:52:55.992Z,99001.00
2022-11-05T08:55:23.932Z,99004.44
2022-11-05T08:57:57.291Z,99008.78
2022-11-05T09:00:25.804Z,99019.81
2022-11-05T09:02:53.560Z,99021.97
2022-11-05T09:05:21.362Z,99023.78
2022-11-05T09:07:50.505Z,99018.00
2022-11-05T09:10:18.390Z,99024.44
2022-11-05T09:12:46.291Z,99031.66
2022-11-05T09:15:14.078Z,99026.16
2022-11-05T09:17:42.087Z,99031.88
2022-11-05T09:20:12.840Z,99021.84
2022-11-05T09:22:43.234Z,99032.00
2022-11-05T09:25:12.838Z,99034.72
2022-11-05T09:27:40.563Z,99030.69
2022-11-05T09:30:10.466Z,99035.53
2022-11-05T09:32:39.075Z,99037.41
2022-11-05T09:35:07.287Z,99043.13
2022-11-05T09:37:35.040Z,99042.50
2022-11-05T09:40:02.766Z,99035.63
2022-11-05T09:42:38.570Z,99040.06
2022-11-05T09:45:10.944Z,99037.09
2022-11-05T09:47:42.979Z,99043.72
2022-11-05T09:50:16.200Z,99043.91
2022-11-05T09:52:44.346Z,99056.03
2022-11-05T09:55:29.041Z,99055.59
2022-11-05T09:58:01.030Z,99054.22
2022-11-05T10:00:30.068Z,99060.91
2022-11-05T10:03:01.624Z,99062.31
2022-11-05T10:05:29.706Z,99074.91
2022-11-05T10:08:02.648Z,99077.06
2022-11-05T10:10:41.069Z,99074.47
2022-11-05T10:13:21.827Z,99070.31
2022-11-05T10:15:59.177Z,99077.97
2022-11-05T10:18:33.535Z,99078.03
2022-11-05T10:21:01.545Z,99084.50
2022-11-05T10:23:29.856Z,99093.03
2022-11-05T10:26:01.929Z,99099.63
2022-11-05T10:28:32.889Z,99099.50
2022-11-05T10:31:02.701Z,99107.22
2022-11-05T10:33:34.683Z,99102.25
2022-11-05T10:36:06.133Z,99103.03
2022-11-05T10:38:34.327Z,99104.03
2022-11-05T10:41:29.507Z,99097.41
2022-11-05T10:44:03.523Z,99100.13
2022-11-05T10:46:39.744Z,99103.31
2022-11-05T10:49:24.315Z,99100.88
2022-11-05T10:51:56.559Z,99102.91
2022-11-05T10:54:32.146Z,99111.56
2022-11-05T10:56:59.892Z,99100.00
2022-11-05T10:59:31.060Z,99101.28
2022-11-05T11:02:01.811Z,99101.66
2022-11-05T11:04:37.499Z,99096.75
2022-11-05T11:07:06.251Z,99093.00
2022-11-05T11:09:36.881Z,99086.22
2022-11-05T11:12:08.160Z,99096.94
2022-11-05T11:14:37.223Z,99094.25
2022-11-05T11:17:24.654Z,99094.13
2022-11-05T11:19:53.510Z,99091.25
2022-11-05T11:22:22.772Z,99087.69
2022-11-05T11:24:53.872Z,99089.00
2022-11-05T11:27:25.794Z,99091.28
2022-11-05T11:29:59.745Z,99090.38
2022-11-05T11:32:32.855Z,99098.88
2022-11-05T11:35:01.153Z,99100.84
2022-11-05T11:37:31.515Z,99099.28
2022-11-05T11:40:03.376Z,99098.69
2022-11-05T11:42:34.404Z,99096.38
2022-11-05T11:45:08.104Z,99098.22
2022-11-05T11:47:35.977Z,99089.34
2022-11-05T11:50:03.969Z,99078.19
2022-11-05T11:52:33.940Z,99091.47
2022-11-05T11:55:22.822Z,99095.94
2022-11-05T11:57:53.141Z,99087.47
2022-11-05T12:00:26.780Z,99092.38
2022-11-05T12:03:25.442Z,99098.31
2022-11-05T12:06:01.191Z,99096.25
2022-11-05T12:08:45.528Z,99090.25
2022-11-05T12:11:19.296Z,99084.00
2022-11-05T12:14:00.584Z,99087.69
2022-11-05T12:16:45.709Z,99087.56
2022-11-05T12:19:24.264Z,99081.44
2022-11-05T12:21:59.274Z,99079.22
2022-11-05T12:24:46.160Z,99076.69
2022-11-05T12:27:24.428Z,99066.75
2022-11-05T12:29:59.942Z,99070.56
2022-11-05T12:32:46.960Z,99066.28
2022-11-05T12:35:28.000Z,99062.38
2022-11-05T12:38:04.428Z,99056.19
2022-11-05T12:40:43.995Z,99055.56
2022-11-05T12:43:19.853Z,99060.13
2022-11-05T12:45:55.013Z,99058.28
2022-11-05T12:48:43.957Z,99055.81
2022-11-05T12:51:22.829Z,99059.06
2022-11-05T12:54:04.950Z,99060.91
2022-11-05T12:56:37.112Z,99057.66
2022-11-05T12:59:13.629Z,99063.72
2022-11-05T13:01:46.711Z,99058.97
2022-11-05T13:04:24.528Z,99057.72
2022-11-05T13:06:55.998Z,99063.28
2022-11-05T13:09:28.874Z,99064.78
2022-11-05T13:12:00.602Z,99061.41
2022-11-05T13:14:31.641Z,99071.09
2022-11-05T13:17:04.176Z,99072.16
2022-11-05T13:19:38.364Z,99075.97
2022-11-05T13:22:17.278Z,99073.25
2022-11-05T13:24:50.382Z,99071.75
2022-11-05T13:27:38.000Z,99071.00
2022-11-05T13:30:07.707Z,99073.19
2022-11-05T13:32:38.226Z,99074.97
2022-11-05T13:35:15.993Z,99070.31
2022-11-05T13:38:07.858Z,99074.41
2022-11-05T13:40:46.590Z,99082.44
2022-11-05T13:43:30.740Z,99071.88
2022-11-05T13:46:19.500Z,99079.31
2022-11-05T13:49:16.509Z,99080.59
2022-11-05T13:51:51.078Z,99086.91
2022-11-05T13:54:48.355Z,99089.44
2022-11-05T13:57:35.811Z,99085.97
2022-11-05T14:00:12.485Z,99086.78
2022-11-05T14:02:44.499Z,99090.56
2022-11-05T14:05:28.006Z,99082.91
2022-11-05T14:07:59.958Z,99084.03
2022-11-05T14:10:35.164Z,99088.03
2022-11-05T14:13:17.236Z,99087.44
2022-11-05T14:15:57.613Z,99093.78
2022-11-05T14:18:40.802Z,99097.59
2022-11-05T14:21:31.159Z,99091.94
2022-11-05T14:24:18.804Z,99087.19
2022-11-05T14:27:25.230Z,99091.69
2022-11-05T14:29:55.847Z,99096.88
2022-11-05T14:32:42.060Z,99096.97
2022-11-05T14:35:36.370Z,99094.53
2022-11-05T14:38:06.331Z,99097.50
2022-11-05T14:40:38.404Z,99097.19
2022-11-05T14:43:08.943Z,99100.25
2022-11-05T14:45:39.852Z,99104.88
2022-11-05T14:48:25.209Z,99111.16
2022-11-05T14:50:53.183Z,99100.03
2022-11-05T14:53:32.102Z,99110.59
2022-11-05T14:56:04.634Z,99112.50
2022-11-05T14:58:35.378Z,99105.63
2022-11-05T15:01:06.352Z,99107.84
2022-11-05T15:03:54.312Z,99110.69
2022-11-05T15:06:27.855Z,99111.78
2022-11-05T15:09:04.801Z,99113.97
2022-11-05T15:11:38.219Z,99119.72
2022-11-05T15:14:13.858Z,99132.59
2022-11-05T15:16:44.402Z,99125.53
2022-11-05T15:19:24.141Z,99126.75
2022-11-05T15:21:54.392Z,99126.75
2022-11-05T15:24:23.278Z,99128.34
2022-11-05T15:27:00.053Z,99127.91
2022-11-05T15:29:30.384Z,99125.56
2022-11-05T15:31:59.497Z,99133.88
2022-11-05T15:34:29.856Z,99123.75
2022-11-05T15:36:59.923Z,99121.22
2022-11-05T15:39:34.360Z,99124.88
2022-11-05T15:42:07.747Z,99125.03
2022-11-05T15:44:40.526Z,99122.34
2022-11-05T15:47:18.162Z,99124.44
2022-11-05T15:49:50.033Z,99130.88
2022-11-05T15:52:20.765Z,99126.75
2022-11-05T15:55:08.318Z,99118.72
2022-11-05T15:57:40.305Z,99125.13
2022-11-05T16:00:17.310Z,99128.78
2022-11-05T16:02:53.567Z,99133.72
2022-11-05T16:05:21.880Z,99128.25
2022-11-05T16:07:49.977Z,99137.28
2022-11-05T16:10:20.825Z,99137.66
2022-11-05T16:12:50.229Z,99135.56
2022-11-05T16:15:21.716Z,99131.91
2022-11-05T16:17:52.903Z,99139.69
2022-11-05T16:20:27.736Z,99138.34
2022-11-05T16:22:58.284Z,99141.03
2022-11-05T16:25:33.132Z,99139.31
2022-11-05T16:28:02.844Z,99149.94
2022-11-05T16:30:30.829Z,99161.03
2022-11-05T16:33:05.018Z,99162.38
2022-11-05T16:35:33.128Z,99171.13
2022-11-05T16:38:02.352Z,99163.81
2022-11-05T16:40:30.402Z,99172.00
2022-11-05T16:43:17.367Z,99174.47
2022-11-05T16:45:45.205Z,99172.47
2022-11-05T16:48:14.199Z,99167.19
2022-11-05T16:50:42.716Z,99167.66
2022-11-05T16:53:10.492Z,99173.13
2022-11-05T16:55:39.993Z,99179.75
2022-11-05T16:58:16.549Z,99175.00
2022-11-05T17:00:45.587Z,99170.25
2022-11-05T17:03:13.251Z,99171.66
2022-11-05T17:05:41.966Z,99165.72
2022-11-05T17:08:10.074Z,99161.88
2022-11-05T17:10:37.999Z,99168.97
2022-11-05T17:13:05.706Z,99166.13
2022-11-05T17:15:35.712Z,99157.69
2022-11-05T17:18:06.010Z,99172.84
2022-11-05T17:20:40.729Z,99181.59
2022-11-05T17:23:10.229Z,99184.09
2022-11-05T17:25:39.439Z,99182.25
2022-11-05T17:28:07.882Z,99189.84
2022-11-05T17:30:35.814Z,99194.81
2022-11-05T17:33:05.161Z,99185.84
2022-11-05T17:35:33.431Z,99200.03
2022-11-05T17:38:01.185Z,99207.53
2022-11-05T17:40:29.419Z,99208.44
2022-11-05T17:42:57.235Z,99201.13
2022-11-05T17:45:24.896Z,99195.59
2022-11-05T17:47:52.659Z,99197.66
2022-11-05T17:50:22.027Z,99210.84
2022-11-05T17:52:49.741Z,99212.84
2022-11-05T17:55:17.621Z,99212.75
2022-11-05T17:57:47.411Z,99206.09
2022-11-05T18:00:17.761Z,99206.19
2022-11-05T18:02:48.394Z,99202.50
2022-11-05T18:05:17.247Z,99208.44
2022-11-05T18:07:46.955Z,99210.31
2022-11-05T18:10:15.332Z,99213.81
2022-11-05T18:12:43.887Z,99221.19
2022-11-05T18:15:11.842Z,99223.03
2022-11-05T18:17:39.611Z,99236.06
2022-11-05T18:20:14.190Z,99232.09
2022-11-05T18:22:47.409Z,99232.03
2022-11-05T18:25:15.134Z,99242.38
2022-11-05T18:27:43.290Z,99239.16
2022-11-05T18:30:14.011Z,99226.72
2022-11-05T18:32:42.067Z,99255.56
2022-11-05T18:35:10.378Z,99257.34
2022-11-05T18:37:38.711Z,99259.59
2022-11-05T18:40:09.233Z,99252.91
2022-11-05T18:42:37.578Z,99245.81
2022-11-05T18:45:06.139Z,99236.66
2022-11-05T18:47:34.211Z,99233.91
2022-11-05T18:50:01.979Z,99237.09
2022-11-05T18:52:31.653Z,99221.81
2022-11-05T18:54:59.425Z,99232.19
2022-11-05T18:57:29.160Z,99234.56
2022-11-05T18:59:56.879Z,99246.59
2022-11-05T19:02:24.827Z,99239.38
2022-11-05T19:05:26.853Z,99246.16
2022-11-05T19:07:40.881Z,99238.88
2022-11-05T19:10:09.541Z,99249.50
2022-11-05T19:12:38.640Z,99249.41
2022-11-05T19:15:08.068Z,99238.50
2022-11-05T19:17:36.646Z,99240.16
2022-11-05T19:20:06.957Z,99230.28
2022-11-05T19:22:35.090Z,99231.72
2022-11-05T19:25:03.567Z,99237.69
2022-11-05T19:27:32.160Z,99243.66
2022-11-05T19:30:01.324Z,99242.00
2022-11-05T19:32:29.088Z,99239.13
2022-11-05T19:34:56.813Z,99231.72
2022-11-05T19:37:24.695Z,99224.16
2022-11-05T19:39:53.112Z,99222.28
2022-11-05T19:42:21.506Z,99221.66
2022-11-05T19:44:49.541Z,99235.09
2022-11-05T19:47:19.095Z,99230.47
2022-11-05T19:49:46.917Z,99231.50
2022-11-05T19:52:14.691Z,99223.59
2022-11-05T19:54:42.608Z,99220.94
2022-11-05T19:57:10.386Z,99234.63
2022-11-05T19:59:38.368Z,99239.44
2022-11-05T20:02:09.364Z,99243.69
2022-11-05T20:04:40.972Z,99231.09
2022-11-05T20:07:09.114Z,99238.03
2022-11-05T20:09:36.854Z,99233.44
2022-11-05T20:12:04.846Z,99243.50
2022-11-05T20:14:33.330Z,99234.56
2022-11-05T20:17:01.346Z,99242.06
2022-11-05T20:19:29.083Z,99250.34
2022-11-05T20:22:00.183Z,99250.63
2022-11-05T20:24:27.949Z,99252.50
2022-11-05T20:26:57.190Z,99247.56
2022-11-05T20:29:35.009Z,99246.72
2022-11-05T20:32:04.558Z,99255.41
2022-11-05T20:34:33.925Z,99253.03
2022-11-05T20:37:03.183Z,99257.22
2022-11-05T20:39:31.563Z,99246.66
2022-11-05T20:42:00.427Z,99265.56
2022-11-05T20:44:28.328Z,99253.47
2022-11-05T20:46:56.898Z,99249.91
2022-11-05T20:49:25.829Z,99258.38
2022-11-05T20:51:54.000Z,99256.00
2022-11-05T20:54:23.313Z,99253.50
2022-11-05T20:56:51.133Z,99249.03
2022-11-05T20:59:19.381Z,99247.69
2022-11-05T21:01:47.345Z,99247.50
2022-11-05T21:04:15.167Z,99244.38
2022-11-05T21:06:42.876Z,99248.94
2022-11-05T21:09:10.601Z,99258.09
2022-11-05T21:11:53.572Z,99260.88
2022-11-05T21:14:21.332Z,99255.03
2022-11-05T21:16:49.034Z,99254.47
2022-11-05T21:19:16.757Z,99250.94
2022-11-05T21:21:44.491Z,99257.66
2022-11-05T21:24:12.171Z,99252.97
2022-11-05T21:26:41.265Z,99253.72
2022-11-05T21:29:09.020Z,99260.81
2022-11-05T21:31:37.248Z,99255.25
2022-11-05T21:34:05.215Z,99253.28
2022-11-05T21:36:32.900Z,99247.19
2022-11-05T21:39:00.629Z,99250.38
2022-11-05T21:41:28.322Z,99254.38
2022-11-05T21:43:57.422Z,99246.25
2022-11-05T21:46:25.403Z,99244.84
2022-11-05T21:48:53.234Z,99251.91
2022-11-05T21:51:38.378Z,99262.50
2022-11-05T21:54:23.772Z,99258.00
2022-11-05T21:57:12.126Z,99251.84
2022-11-05T21:59:51.824Z,99245.63
2022-11-05T22:02:21.537Z,99252.16
2022-11-05T22:04:51.884Z,99244.97
2022-11-05T22:07:21.162Z,99246.31
2022-11-05T22:09:49.410Z,99238.34
2022-11-05T22:12:17.487Z,99233.84
2022-11-05T22:14:46.636Z,99235.34
2022-11-05T22:17:16.062Z,99232.59
2022-11-05T22:19:46.375Z,99225.94
2022-11-05T22:22:14.236Z,99230.56
2022-11-05T22:24:42.235Z,99228.22
2022-11-05T22:27:13.677Z,99235.91
2022-11-05T22:29:41.760Z,99234.72
2022-11-05T22:32:11.622Z,99224.81
2022-11-05T22:34:39.399Z,99237.41
2022-11-05T22:37:07.807Z,99235.09
2022-11-05T22:39:35.535Z,99237.69
2022-11-05T22:42:08.302Z,99238.66
2022-11-05T22:44:37.233Z,99233.03
2022-11-05T22:47:05.358Z,99228.19
2022-11-05T22:49:34.520Z,99228.50
2022-11-05T22:52:02.344Z,99229.06
2022-11-05T22:54:33.868Z,99230.38
2022-11-05T22:57:04.430Z,99237.91
2022-11-05T22:59:32.286Z,99236.06
2022-11-05T23:02:02.911Z,99239.59
2022-11-05T23:04:35.798Z,99224.97
2022-11-05T23:07:26.104Z,99220.94
2022-11-05T23:10:12.776Z,99219.97
2022-11-05T23:12:42.637Z,99221.38
2022-11-05T23:15:30.920Z,99217.50
2022-11-05T23:18:16.327Z,99220.31
2022-11-05T23:21:03.092Z,99215.50
2022-11-05T23:23:48.424Z,99219.84
2022-11-05T23:26:33.758Z,99215.66
2022-11-05T23:29:01.459Z,99205.19
2022-11-05T23:31:46.938Z,99211.63
2022-11-05T23:34:14.658Z,99204.69
2022-11-05T23:37:01.182Z,99205.31
2022-11-05T23:39:28.900Z,99207.81
2022-11-05T23:42:14.071Z,99199.41
2022-11-05T23:44:59.431Z,99209.03
2022-11-05T23:47:44.636Z,99205.19
2022-11-05T23:50:12.505Z,99203.09
2022-11-05T23:52:41.554Z,99203.91
2022-11-05T23:55:09.854Z,99186.03
2022-11-05T23:57:38.031Z,99192.34
